Time;durP1;ratioP1;P1;durP2;ratioP2;P2;SDS_P1;SDS_P2;PMS_P1;PMS_P2;Temp;Humidity;BMP_temperature;BMP_pressure;BME280_temperature;BME280_humidity;BME280_pressure;Samples;Min_cycle;Max_cycle;Signal;HPM_P1;HPM_P2
2024/03/24 01:48:38;228979.00;0.76;395.79;0.00;0.00;0.62;;;;;7.60;1.00;;;;;;2517808;55;3584;31
2024/03/24 02:17:02;437669.00;1.46;754.57;96083.00;0.32;166.81;;;;;7.70;1.00;;;;;;2274572;61;1368;-90
2024/03/24 02:19:28;227282.00;0.76;392.87;94653.00;0.32;164.34;;;;;7.50;1.00;;;;;;2273106;61;1133;-90
2024/03/24 02:24:25;655926.00;2.19;1130.89;88518.00;0.30;153.75;;;;;7.50;1.00;;;;;;2288094;56;3605;-86
2024/03/24 02:44:27;925049.00;3.08;1600.16;0.00;0.00;0.62;;;;;7.70;1.00;;;;;;2278154;61;1402;-88
2024/03/24 02:46:53;529595.00;1.77;912.79;0.00;0.00;0.62;;;;;7.80;1.00;;;;;;2276236;61;1307;-87
2024/03/24 02:51:55;618369.00;2.06;1065.95;31192.00;0.10;54.65;;;;;7.30;1.00;;;;;;2286893;55;3671;-86
2024/03/24 02:56:51;390486.00;1.30;673.45;4939.00;0.02;9.18;;;;;7.00;1.00;;;;;;2282271;60;1383;-87
2024/03/24 03:01:48;415665.00;1.39;716.74;36356.00;0.12;63.58;;;;;6.90;1.00;;;;;;2274278;61;1499;-85
2024/03/24 03:09:16;172270.00;0.57;298.18;0.00;0.00;0.62;;;;;6.90;1.00;;;;;;2301230;55;3673;-89
2024/03/24 03:17:10;269872.00;0.90;466.12;0.00;0.00;0.62;;;;;7.10;1.00;;;;;;2321020;55;3615;-89
2024/03/24 03:27:06;207657.00;0.69;359.10;14193.00;0.05;25.21;;;;;7.30;1.00;;;;;;2290617;55;3738;-87
2024/03/24 03:44:32;177739.00;0.59;307.60;0.00;0.00;0.62;;;;;7.30;1.00;;;;;;2283754;55;3641;-87
2024/03/24 03:46:58;167133.00;0.56;289.33;0.00;0.00;0.62;;;;;7.50;1.00;;;;;;2330124;40;3586;-87
2024/03/24 03:49:24;350985.00;1.17;605.55;0.00;0.00;0.62;;;;;7.50;1.00;;;;;;2293647;39;3767;-88
2024/03/24 04:21:49;193034.00;0.64;333.93;0.00;0.00;0.62;;;;;7.20;1.00;;;;;;2283475;39;3435;-88
2024/03/24 04:24:15;62140.00;0.21;108.18;0.00;0.00;0.62;;;;;7.30;1.00;;;;;;2279931;60;1282;-87
2024/03/24 04:46:32;311888.00;1.04;538.35;92869.00;0.31;161.26;;;;;7.20;1.00;;;;;;2278375;60;1422;-89
2024/03/24 04:53:54;230992.00;0.77;399.26;94127.00;0.31;163.43;;;;;7.10;1.00;;;;;;2274448;61;1424;-87
2024/03/24 04:56:20;280181.00;0.93;483.85;89996.00;0.30;156.30;;;;;7.10;1.00;;;;;;2278632;55;3835;-85
2024/03/24 05:01:15;247790.00;0.83;428.15;79098.00;0.26;137.48;;;;;7.00;1.00;;;;;;2282696;60;1414;-87
2024/03/24 05:06:11;410665.00;1.37;708.14;82906.00;0.28;144.06;;;;;7.00;1.00;;;;;;2274428;61;1434;-87
2024/03/24 05:08:37;281873.00;0.94;486.76;91980.00;0.31;159.73;;;;;6.90;1.00;;;;;;2272732;61;1031;-88
2024/03/24 05:11:05;366269.00;1.22;631.82;92285.00;0.31;160.25;;;;;7.10;1.00;;;;;;2283612;56;3807;-88
2024/03/24 05:16:07;669658.00;2.23;1154.66;95273.00;0.32;165.41;;;;;7.50;1.00;;;;;;2282884;60;1398;-88
2024/03/24 05:18:33;379820.00;1.27;655.12;94124.00;0.31;163.43;;;;;7.40;1.00;;;;;;2287791;39;3587;-86
2024/03/24 05:21:00;526610.00;1.76;907.65;98703.00;0.33;171.33;;;;;7.50;1.00;;;;;;2277477;61;836;-87
2024/03/24 05:23:27;433398.00;1.44;747.23;103343.00;0.34;179.34;;;;;7.30;1.00;;;;;;2315561;40;3641;-87
2024/03/24 05:25:54;409393.00;1.36;705.95;88832.00;0.30;154.29;;;;;7.40;1.00;;;;;;2284804;60;1319;-89
2024/03/24 05:28:21;390114.00;1.30;672.81;92444.00;0.31;160.53;;;;;7.40;1.00;;;;;;2284796;60;1035;-88
2024/03/24 05:30:49;419625.00;1.40;723.55;77741.00;0.26;135.14;;;;;7.30;1.00;;;;;;2284774;60;1984;-86
2024/03/24 05:33:15;619594.00;2.07;1068.06;135044.00;0.45;234.03;;;;;7.20;1.00;;;;;;2284781;60;1222;-86
2024/03/24 05:35:42;393336.00;1.31;678.35;91774.00;0.31;159.37;;;;;7.10;1.00;;;;;;2309704;39;3744;-87
2024/03/24 05:38:08;456464.00;1.52;786.90;94767.00;0.32;164.54;;;;;7.00;1.00;;;;;;2280716;61;1735;-89
2024/03/24 05:40:36;468756.00;1.56;808.05;85064.00;0.28;147.78;;;;;6.90;1.00;;;;;;2290363;40;3614;-87
2024/03/24 05:48:00;757300.00;2.52;1306.75;105709.00;0.35;183.43;;;;;6.70;1.00;;;;;;2278584;61;1418;-88
2024/03/24 05:52:56;856555.00;2.86;1479.94;56741.00;0.19;98.84;;;;;6.80;1.00;;;;;;2270148;61;1400;-89
2024/03/24 06:10:16;847596.00;2.83;1464.26;0.00;0.00;0.62;;;;;7.40;1.00;;;;;;832332;56;3533;-88
2024/03/24 06:15:13;781313.00;2.60;1348.55;0.00;0.00;0.62;;;;;7.50;1.00;;;;;;2518870;40;3446;31
2024/03/24 06:22:37;616129.00;2.05;1062.08;9750.00;0.03;17.52;;;;;7.40;1.00;;;;;;1671030;55;3527;-87
2024/03/24 06:45:05;133954.00;0.45;232.15;0.00;0.00;0.62;;;;;6.30;1.00;;;;;;2274942;61;984;-89
2024/03/24 06:47:31;29865.00;0.10;52.35;0.00;0.00;0.62;;;;;6.40;1.00;;;;;;2388714;39;3787;-84
2024/03/24 06:59:54;33839.00;0.11;59.23;0.00;0.00;0.62;;;;;10.20;1.00;;;;;;2278851;61;1016;-87
2024/03/24 07:02:21;20511.00;0.07;36.15;0.00;0.00;0.62;;;;;11.20;1.00;;;;;;2276406;61;940;-88
2024/03/24 07:09:46;178224.00;0.59;308.43;0.00;0.00;0.62;;;;;10.00;1.00;;;;;;2285643;40;3418;-89
2024/03/24 07:19:41;101448.00;0.34;176.07;0.00;0.00;0.62;;;;;8.10;1.00;;;;;;2274314;61;1385;-88
2024/03/24 07:24:42;81753.00;0.27;142.07;0.00;0.00;0.62;;;;;8.40;1.00;;;;;;2273903;61;1352;-88
2024/03/24 07:29:38;16566.00;0.06;29.32;0.00;0.00;0.62;;;;;8.20;1.00;;;;;;2278309;61;1977;-89
2024/03/24 07:32:05;49102.00;0.16;85.63;0.00;0.00;0.62;;;;;8.00;1.00;;;;;;2276379;61;1115;-87
2024/03/24 07:34:31;43372.00;0.14;75.72;0.00;0.00;0.62;;;;;8.10;1.00;;;;;;2276355;61;1034;-88
2024/03/24 07:36:59;29970.00;0.10;52.53;0.00;0.00;0.62;;;;;8.10;1.00;;;;;;2276251;61;1522;-88
2024/03/24 07:39:26;146256.00;0.49;253.35;0.00;0.00;0.62;;;;;8.20;1.00;;;;;;2282242;55;3767;-86
2024/03/24 07:44:22;146837.00;0.49;254.36;0.00;0.00;0.62;;;;;8.80;1.00;;;;;;2282186;61;1290;-87
2024/03/24 07:49:17;4715.00;0.02;8.79;0.00;0.00;0.62;;;;;9.00;1.00;;;;;;2282080;61;1393;-88
2024/03/24 07:51:43;0.00;0.00;0.62;0.00;0.00;0.62;;;;;9.30;1.00;;;;;;2280469;61;2007;-86
2024/03/24 07:54:12;135884.00;0.45;235.47;36432.00;0.12;63.71;;;;;10.20;1.00;;;;;;2280476;61;1048;-86
2024/03/24 07:56:38;0.00;0.00;0.62;0.00;0.00;0.62;;;;;11.20;1.00;;;;;;2280356;61;1377;-86
2024/03/24 07:59:05;19603.00;0.07;34.58;0.00;0.00;0.62;;;;;11.50;1.00;;;;;;2280339;61;998;-87
2024/03/24 08:01:31;155.00;0.00;0.89;0.00;0.00;0.62;;;;;11.70;1.00;;;;;;2280378;61;920;-88
2024/03/24 08:04:01;223351.00;0.74;386.11;0.00;0.00;0.62;;;;;11.60;1.00;;;;;;2284058;55;3752;-89
2024/03/24 08:06:27;10740.00;0.04;19.23;0.00;0.00;0.62;;;;;11.50;1.00;;;;;;2284407;60;1351;-88
2024/03/24 08:08:54;33664.00;0.11;58.92;0.00;0.00;0.62;;;;;11.20;1.00;;;;;;2284510;60;1126;-87
2024/03/24 08:11:21;0.00;0.00;0.62;0.00;0.00;0.62;;;;;10.90;1.00;;;;;;2284188;60;1913;-87
2024/03/24 08:13:48;122641.00;0.41;212.64;0.00;0.00;0.62;;;;;11.00;1.00;;;;;;2284523;60;962;-87
2024/03/24 08:16:14;3017.00;0.01;5.85;0.00;0.00;0.62;;;;;10.50;1.00;;;;;;2284345;60;1271;-87
2024/03/24 08:18:40;67543.00;0.23;117.51;0.00;0.00;0.62;;;;;10.70;1.00;;;;;;2284525;60;924;-88
2024/03/24 08:21:06;32968.00;0.11;57.72;0.00;0.00;0.62;;;;;10.40;1.00;;;;;;2284489;60;1103;-86
2024/03/24 08:23:33;91443.00;0.30;158.80;0.00;0.00;0.62;;;;;10.40;1.00;;;;;;2284493;60;1096;-89
2024/03/24 08:25:59;32895.00;0.11;57.59;0.00;0.00;0.62;;;;;10.70;1.00;;;;;;2284353;60;1398;-87
2024/03/24 08:28:27;32087.00;0.11;56.20;0.00;0.00;0.62;;;;;11.30;1.00;;;;;;2284452;60;957;-88
2024/03/24 08:30:53;58310.00;0.19;101.56;0.00;0.00;0.62;;;;;11.80;1.00;;;;;;2284434;60;1931;-86
2024/03/24 08:33:20;203909.00;0.68;352.65;0.00;0.00;0.62;;;;;11.50;1.00;;;;;;2284462;60;2267;-87
2024/03/24 08:35:47;47452.00;0.16;82.78;0.00;0.00;0.62;;;;;11.50;1.00;;;;;;2284336;60;1388;-86
2024/03/24 08:38:13;102352.00;0.34;177.63;0.00;0.00;0.62;;;;;11.70;1.00;;;;;;2284386;60;1632;-85
2024/03/24 08:40:39;0.00;0.00;0.62;0.00;0.00;0.62;;;;;11.80;1.00;;;;;;2284454;60;1068;-87
2024/03/24 08:43:06;0.00;0.00;0.62;0.00;0.00;0.62;;;;;11.70;1.00;;;;;;2284362;60;964;-85
2024/03/24 08:45:35;124885.00;0.42;216.51;0.00;0.00;0.62;;;;;11.40;1.00;;;;;;2284480;60;1319;-87
2024/03/24 08:48:01;4642.00;0.02;8.67;0.00;0.00;0.62;;;;;11.00;1.00;;;;;;2284504;60;1077;-85
2024/03/24 08:50:27;35303.00;0.12;61.76;0.00;0.00;0.62;;;;;10.60;1.00;;;;;;2284421;60;1999;-88
2024/03/24 08:52:54;18944.00;0.06;33.44;0.00;0.00;0.62;;;;;10.60;1.00;;;;;;2284407;60;1075;-87
2024/03/24 08:55:20;12434.00;0.04;22.17;0.00;0.00;0.62;;;;;11.20;1.00;;;;;;2284287;60;1618;-87
2024/03/24 08:57:47;14680.00;0.05;26.06;0.00;0.00;0.62;;;;;10.70;1.00;;;;;;2284300;60;1082;-84
2024/03/24 09:00:13;98398.00;0.33;170.81;0.00;0.00;0.62;;;;;10.80;1.00;;;;;;2287578;39;3613;-84
2024/03/24 09:02:41;0.00;0.00;0.62;0.00;0.00;0.62;;;;;10.60;1.00;;;;;;2280273;61;1793;-87
2024/03/24 09:05:08;0.00;0.00;0.62;0.00;0.00;0.62;;;;;10.60;1.00;;;;;;2280315;61;1122;-86
2024/03/24 09:07:35;0.00;0.00;0.62;0.00;0.00;0.62;;;;;10.90;1.00;;;;;;2280201;61;1414;-86
2024/03/24 09:10:00;0.00;0.00;0.62;0.00;0.00;0.62;;;;;11.00;1.00;;;;;;2280256;61;1919;-86
2024/03/24 09:12:27;0.00;0.00;0.62;0.00;0.00;0.62;;;;;10.80;1.00;;;;;;2280357;61;1107;-87
2024/03/24 09:14:53;47552.00;0.16;82.95;0.00;0.00;0.62;;;;;10.90;1.00;;;;;;2280506;61;1110;-86
2024/03/24 09:17:20;59728.00;0.20;104.01;0.00;0.00;0.62;;;;;11.20;1.00;;;;;;2280881;61;1655;-86
2024/03/24 09:19:47;42316.00;0.14;73.90;0.00;0.00;0.62;;;;;10.90;1.00;;;;;;2280926;61;1086;-88
2024/03/24 09:22:14;49786.00;0.17;86.82;0.00;0.00;0.62;;;;;10.70;1.00;;;;;;2280928;61;1013;-87
2024/03/24 09:24:40;11064.00;0.04;19.79;0.00;0.00;0.62;;;;;10.50;1.00;;;;;;2280977;61;1030;-85
2024/03/24 09:27:07;116566.00;0.39;202.16;0.00;0.00;0.62;;;;;10.30;1.00;;;;;;2280849;61;1405;-87
2024/03/24 09:29:33;0.00;0.00;0.62;0.00;0.00;0.62;;;;;10.10;1.00;;;;;;2280965;61;1096;-88
2024/03/24 09:32:00;13219.00;0.04;23.53;0.00;0.00;0.62;;;;;10.00;1.00;;;;;;2280800;61;2014;-87
2024/03/24 09:34:26;0.00;0.00;0.62;0.00;0.00;0.62;;;;;10.10;1.00;;;;;;2280849;61;1715;-87
2024/03/24 09:36:54;60581.00;0.20;105.48;0.00;0.00;0.62;;;;;10.50;1.00;;;;;;2280940;61;1383;-88
2024/03/24 09:39:20;54101.00;0.18;94.28;0.00;0.00;0.62;;;;;10.50;1.00;;;;;;2280908;61;1033;-87
2024/03/24 09:41:47;234140.00;0.78;404.67;0.00;0.00;0.62;;;;;10.60;1.00;;;;;;2280910;61;1073;-85
2024/03/24 09:44:15;12127.00;0.04;21.63;0.00;0.00;0.62;;;;;11.10;1.00;;;;;;2280632;61;1179;-86
2024/03/24 09:46:43;37556.00;0.13;65.66;0.00;0.00;0.62;;;;;11.50;1.00;;;;;;2286537;55;3824;-87
2024/03/24 09:54:12;242762.00;0.81;419.50;0.00;0.00;0.62;;;;;9.90;1.00;;;;;;2275013;61;1329;-90
2024/03/24 10:04:09;429746.00;1.43;740.95;0.00;0.00;0.62;;;;;9.10;1.00;;;;;;1607987;40;3622;-88
2024/03/24 10:19:11;112415.00;0.37;195.00;0.00;0.00;0.62;;;;;9.20;1.00;;;;;;2283754;39;3519;-87
2024/03/24 10:24:07;257251.00;0.86;444.42;0.00;0.00;0.62;;;;;9.20;1.00;;;;;;2294395;40;3540;-88
2024/03/24 10:29:04;388939.00;1.30;670.79;0.00;0.00;0.62;;;;;9.10;1.00;;;;;;2371701;40;3425;-86
2024/03/24 10:41:38;443933.00;1.48;765.35;23089.00;0.08;40.62;;;;;9.10;1.00;;;;;;2278673;61;1085;-91
2024/03/24 11:19:11;856904.00;2.86;1480.55;88256.00;0.29;153.30;;;;;10.40;1.00;;;;;;819560;40;3402;-88
2024/03/24 11:26:47;506391.00;1.69;872.83;89040.00;0.30;154.65;;;;;10.30;1.00;;;;;;2334896;40;3886;-88
2024/03/24 11:29:58;415984.00;1.39;717.29;93242.00;0.31;161.91;;;;;10.50;1.00;;;;;;2357350;40;3738;-88
2024/03/24 11:34:58;300267.00;1.00;518.38;0.00;0.00;0.62;;;;;10.80;1.00;;;;;;2278051;61;1264;-87
2024/03/24 11:39:52;909180.00;3.03;1572.25;16144.00;0.05;28.59;;;;;11.20;1.00;;;;;;2274643;61;1321;-87
2024/03/24 11:42:19;961987.00;3.21;1665.26;162529.00;0.54;281.40;;;;;11.20;1.00;;;;;;2279864;39;3582;-84
2024/03/24 11:44:48;913169.00;3.04;1579.26;90377.00;0.30;156.96;;;;;11.20;1.00;;;;;;2284557;60;1795;-84
2024/03/24 11:47:15;327674.00;1.09;565.49;90545.00;0.30;157.25;;;;;10.90;1.00;;;;;;2284522;60;1596;-85
2024/03/24 11:49:49;303820.00;1.01;524.49;91851.00;0.31;159.50;;;;;10.80;1.00;;;;;;2284540;60;1460;-87
2024/03/24 11:52:17;0.00;0.00;0.62;0.00;0.00;0.62;;;;;10.70;1.00;;;;;;2284616;60;1997;-88
2024/03/24 11:54:45;192069.00;0.64;332.27;0.00;0.00;0.62;;;;;10.70;1.00;;;;;;2297455;39;3636;-85
2024/03/24 11:57:11;144817.00;0.48;250.87;0.00;0.00;0.62;;;;;10.30;1.00;;;;;;2280360;60;1462;-86
2024/03/24 11:59:38;226387.00;0.75;391.33;0.00;0.00;0.62;;;;;10.20;1.00;;;;;;2280498;60;946;-85
2024/03/24 12:02:04;136300.00;0.45;236.19;0.00;0.00;0.62;;;;;10.30;1.00;;;;;;2280391;60;1024;-86
2024/03/24 12:04:32;76929.00;0.26;133.73;0.00;0.00;0.62;;;;;10.70;1.00;;;;;;2280458;60;980;-87
2024/03/24 12:06:59;6927.00;0.02;12.62;0.00;0.00;0.62;;;;;11.00;1.00;;;;;;2280263;60;1656;-85
2024/03/24 12:09:29;193357.00;0.64;334.49;0.00;0.00;0.62;;;;;11.00;1.00;;;;;;2280390;60;1071;-85
2024/03/24 12:11:55;214068.00;0.71;370.14;44276.00;0.15;77.29;;;;;11.30;1.00;;;;;;2285784;55;3576;-85
2024/03/24 12:14:23;0.00;0.00;0.62;0.00;0.00;0.62;;;;;11.50;1.00;;;;;;2288624;60;1704;-87
2024/03/24 12:19:21;112259.00;0.37;194.73;0.00;0.00;0.62;;;;;11.20;1.00;;;;;;2292009;56;3619;-85
2024/03/24 12:34:27;419281.00;1.40;722.95;0.00;0.00;0.62;;;;;11.40;1.00;;;;;;2274787;61;1157;-89
2024/03/24 13:47:32;555766.00;1.85;957.90;0.00;0.00;0.62;;;;;10.50;1.00;;;;;;2002712;55;3561;-89
2024/03/24 13:52:28;496764.00;1.66;856.25;52423.00;0.17;91.38;;;;;10.80;1.00;;;;;;2283374;61;1962;-89
2024/03/24 14:25:12;375564.00;1.25;647.80;0.00;0.00;0.62;;;;;9.80;1.00;;;;;;2326880;55;3630;-90
2024/03/24 14:30:11;231019.00;0.77;399.30;0.00;0.00;0.62;;;;;10.30;1.00;;;;;;2305046;55;3677;-87
2024/03/24 14:40:37;148291.00;0.49;256.86;0.00;0.00;0.62;;;;;10.60;1.00;;;;;;2274851;61;1326;-87
2024/03/24 15:21:52;228673.00;0.76;395.27;0.00;0.00;0.62;;;;;8.70;1.00;;;;;;2282140;60;1415;-89
2024/03/24 15:26:53;184032.00;0.61;318.43;0.00;0.00;0.62;;;;;9.10;1.00;;;;;;2289385;56;3622;-87
2024/03/24 15:29:21;131161.00;0.44;227.33;0.00;0.00;0.62;;;;;9.50;1.00;;;;;;2276360;61;1705;-87
2024/03/24 15:31:48;41913.00;0.14;73.20;0.00;0.00;0.62;;;;;9.90;1.00;;;;;;2276369;61;1923;-87
2024/03/24 15:39:17;119510016.00;398.37;69145256.00;0.00;0.00;0.62;;;;;9.50;1.00;;;;;;2273876;61;1270;-88
2024/03/24 15:44:13;98297.00;0.33;170.63;0.00;0.00;0.62;;;;;8.90;1.00;;;;;;2282066;60;1398;-87
2024/03/24 15:46:39;7743.00;0.03;14.04;0.00;0.00;0.62;;;;;9.10;1.00;;;;;;2280368;60;1388;-88
2024/03/24 15:54:07;178358.00;0.59;308.66;0.00;0.00;0.62;;;;;9.60;1.00;;;;;;2279216;55;3716;-88
2024/03/24 15:56:43;29405.00;0.10;51.55;0.00;0.00;0.62;;;;;9.40;1.00;;;;;;2280355;60;1340;-87
2024/03/24 15:59:23;0.00;0.00;0.62;0.00;0.00;0.62;;;;;9.50;1.00;;;;;;2280436;60;976;-88
2024/03/24 16:02:03;66575.00;0.22;115.84;0.00;0.00;0.62;;;;;9.40;1.00;;;;;;2287873;40;3675;-87
2024/03/24 16:04:30;9884.00;0.03;17.75;0.00;0.00;0.62;;;;;9.10;1.00;;;;;;2280301;61;1703;-87
2024/03/24 16:06:59;0.00;0.00;0.62;0.00;0.00;0.62;;;;;8.70;1.00;;;;;;2280270;61;1281;-87
2024/03/24 16:09:45;55426.00;0.18;96.57;0.00;0.00;0.62;;;;;8.90;1.00;;;;;;2280373;61;1084;-87
2024/03/24 16:12:25;56456.00;0.19;98.35;0.00;0.00;0.62;;;;;9.10;1.00;;;;;;2319052;55;3773;-88
2024/03/24 16:17:23;189743.00;0.63;328.27;0.00;0.00;0.62;;;;;9.10;1.00;;;;;;2277586;61;1391;-88
2024/03/24 16:19:57;81050.00;0.27;140.85;0.00;0.00;0.62;;;;;9.00;1.00;;;;;;2276213;61;1407;-88
2024/03/24 16:22:28;63275.00;0.21;110.14;0.00;0.00;0.62;;;;;8.80;1.00;;;;;;2276247;61;2082;-88
2024/03/24 16:24:54;284607.00;0.95;491.46;29709.00;0.10;52.08;;;;;9.10;1.00;;;;;;2277216;61;1658;-88
2024/03/24 16:27:24;124936.00;0.42;216.60;0.00;0.00;0.62;;;;;9.30;1.00;;;;;;2277415;61;1541;-88
2024/03/24 16:29:50;189245.00;0.63;327.41;0.00;0.00;0.62;;;;;9.10;1.00;;;;;;2277493;61;2339;-88
2024/03/24 16:32:21;139501.00;0.47;241.71;0.00;0.00;0.62;;;;;8.90;1.00;;;;;;2277491;61;1998;-88
2024/03/24 16:34:46;43564.00;0.15;76.05;0.00;0.00;0.62;;;;;8.80;1.00;;;;;;2277591;61;1071;-89
2024/03/24 16:37:15;17259.00;0.06;30.52;0.00;0.00;0.62;;;;;8.70;1.00;;;;;;2277446;61;1339;-87
2024/03/24 16:39:43;0.00;0.00;0.62;0.00;0.00;0.62;;;;;8.60;1.00;;;;;;2277359;61;1587;-88
2024/03/24 16:42:17;137598.00;0.46;238.43;0.00;0.00;0.62;;;;;8.80;1.00;;;;;;2313468;40;3590;-87
2024/03/24 16:44:45;79897.00;0.27;138.86;0.00;0.00;0.62;;;;;9.00;1.00;;;;;;2277530;61;1109;-86
2024/03/24 16:47:12;111831.00;0.37;193.99;0.00;0.00;0.62;;;;;8.90;1.00;;;;;;2277410;61;2221;-87
2024/03/24 16:49:38;70250.00;0.23;122.19;0.00;0.00;0.62;;;;;8.70;1.00;;;;;;2277521;61;1069;-88
2024/03/24 16:52:06;185473.00;0.62;320.91;0.00;0.00;0.62;;;;;9.00;1.00;;;;;;2277517;61;2009;-88
2024/03/24 16:54:32;82191.00;0.27;142.82;0.00;0.00;0.62;;;;;8.50;1.00;;;;;;2277518;61;1592;-89
2024/03/24 16:56:59;156293.00;0.52;270.65;0.00;0.00;0.62;;;;;8.60;1.00;;;;;;2277452;61;1517;-86
2024/03/24 16:59:25;64997.00;0.22;113.11;0.00;0.00;0.62;;;;;8.60;1.00;;;;;;2277449;61;1031;-87
2024/03/24 17:01:54;60946.00;0.20;106.11;0.00;0.00;0.62;;;;;8.70;1.00;;;;;;2277509;61;1046;-88
2024/03/24 17:04:19;0.00;0.00;0.62;0.00;0.00;0.62;;;;;8.80;1.00;;;;;;2277641;61;1014;-87
2024/03/24 17:09:19;125274.00;0.42;217.18;0.00;0.00;0.62;;;;;9.00;1.00;;;;;;2275075;61;1371;-87
2024/03/24 17:11:45;39892.00;0.13;69.70;0.00;0.00;0.62;;;;;9.20;1.00;;;;;;2273432;61;1915;-88
2024/03/24 17:16:41;31529.00;0.11;55.23;0.00;0.00;0.62;;;;;9.20;1.00;;;;;;2278807;61;1395;-88
2024/03/24 17:19:11;110367.00;0.37;191.46;0.00;0.00;0.62;;;;;9.20;1.00;;;;;;2277213;61;1019;-87
2024/03/24 17:21:38;61442.00;0.20;106.97;0.00;0.00;0.62;;;;;9.40;1.00;;;;;;2277434;61;1708;-89
2024/03/24 17:24:04;34397.00;0.11;60.19;0.00;0.00;0.62;;;;;9.20;1.00;;;;;;2277531;61;1604;-88
2024/03/24 17:26:31;0.00;0.00;0.62;0.00;0.00;0.62;;;;;9.00;1.00;;;;;;2277449;61;1365;-86
2024/03/24 17:28:57;120284.00;0.40;208.57;0.00;0.00;0.62;;;;;9.00;1.00;;;;;;2277385;61;1022;-89
2024/03/24 17:31:31;189401.00;0.63;327.68;0.00;0.00;0.62;;;;;8.90;1.00;;;;;;2277508;61;1997;-87
2024/03/24 17:33:57;42813.00;0.14;74.76;0.00;0.00;0.62;;;;;9.00;1.00;;;;;;2307192;39;3713;-88
2024/03/24 17:41:23;273950.00;0.91;473.14;0.00;0.00;0.62;;;;;9.40;1.00;;;;;;2322689;40;3421;-88
2024/03/24 17:43:49;65154.00;0.22;113.39;0.00;0.00;0.62;;;;;9.30;1.00;;;;;;2280819;60;1020;-87
2024/03/24 17:46:16;89830.00;0.30;156.01;0.00;0.00;0.62;;;;;8.80;1.00;;;;;;2280850;60;1462;-87
2024/03/24 17:48:42;60648.00;0.20;105.60;0.00;0.00;0.62;;;;;8.70;1.00;;;;;;2284933;40;3624;-87
2024/03/24 17:51:09;191808.00;0.64;331.82;0.00;0.00;0.62;;;;;8.10;1.00;;;;;;2280760;60;2018;-87
2024/03/24 17:58:35;325878.00;1.09;562.40;0.00;0.00;0.62;;;;;7.90;1.00;;;;;;2309689;39;3614;-90
2024/03/24 18:01:01;42066.00;0.14;73.46;0.00;0.00;0.62;;;;;7.70;1.00;;;;;;2276701;61;1581;-88
2024/03/24 18:03:28;102251.00;0.34;177.46;0.00;0.00;0.62;;;;;7.90;1.00;;;;;;2276743;61;1197;-87
2024/03/24 18:05:54;51690.00;0.17;90.11;0.00;0.00;0.62;;;;;7.90;1.00;;;;;;2276505;61;1247;-88
2024/03/24 18:11:05;27015.00;0.09;47.42;0.00;0.00;0.62;;;;;7.80;1.00;;;;;;2300820;40;3745;-86
2024/03/24 18:13:33;33892.00;0.11;59.32;0.00;0.00;0.62;;;;;8.00;1.00;;;;;;2280625;61;2001;-86
2024/03/24 18:16:00;69949.00;0.23;121.67;0.00;0.00;0.62;;;;;7.70;1.00;;;;;;2280672;61;1582;-86
2024/03/24 18:18:27;93540.00;0.31;162.42;0.00;0.00;0.62;;;;;7.60;1.00;;;;;;2280739;61;1050;-87
2024/03/24 18:20:56;193756.00;0.65;335.18;74916.00;0.25;130.25;;;;;7.80;1.00;;;;;;2280621;61;970;-89
2024/03/24 18:23:23;0.00;0.00;0.62;0.00;0.00;0.62;;;;;7.90;1.00;;;;;;2280660;61;1693;-86
2024/03/24 18:25:50;23269.00;0.08;40.93;0.00;0.00;0.62;;;;;7.90;1.00;;;;;;2280622;61;1391;-87
2024/03/24 18:28:20;76569.00;0.26;133.11;0.00;0.00;0.62;;;;;8.00;1.00;;;;;;2280605;61;1187;-86
2024/03/24 18:30:49;43368.00;0.14;75.72;0.00;0.00;0.62;;;;;8.10;1.00;;;;;;2280566;61;1163;-88
2024/03/24 18:33:16;35317.00;0.12;61.79;0.00;0.00;0.62;;;;;8.10;1.00;;;;;;2280479;61;2017;-87
2024/03/24 18:35:43;0.00;0.00;0.62;0.00;0.00;0.62;;;;;8.30;1.00;;;;;;2280536;61;1704;-87
2024/03/24 18:38:10;118288.00;0.39;205.13;0.00;0.00;0.62;;;;;8.10;1.00;;;;;;2280669;61;966;-86
2024/03/24 18:40:39;88057.00;0.29;152.95;0.00;0.00;0.62;;;;;7.90;1.00;;;;;;2280515;61;1744;-85
2024/03/24 18:43:08;45606.00;0.15;79.59;0.00;0.00;0.62;;;;;7.80;1.00;;;;;;2280620;61;1101;-86
2024/03/24 18:45:34;28302.00;0.09;49.64;0.00;0.00;0.62;;;;;7.70;1.00;;;;;;2280563;61;1613;-86
2024/03/24 18:48:02;13851.00;0.05;24.62;0.00;0.00;0.62;;;;;7.80;1.00;;;;;;2280268;61;1099;-88
2024/03/24 18:50:29;79819.00;0.27;138.72;0.00;0.00;0.62;;;;;7.50;1.00;;;;;;2280684;61;1040;-88
2024/03/24 18:52:57;0.00;0.00;0.62;0.00;0.00;0.62;;;;;7.30;1.00;;;;;;2280524;61;1997;-87
2024/03/24 18:55:24;291174.00;0.97;502.75;75682.00;0.25;131.58;;;;;7.30;1.00;;;;;;2280379;61;1623;-88
2024/03/24 18:57:50;116936.00;0.39;202.80;0.00;0.00;0.62;;;;;7.20;1.00;;;;;;2280571;61;1618;-88
2024/03/24 19:00:19;177537.00;0.59;307.25;0.00;0.00;0.62;;;;;7.20;1.00;;;;;;2280546;61;1487;-85
2024/03/24 19:02:45;0.00;0.00;0.62;0.00;0.00;0.62;;;;;7.50;1.00;;;;;;2280546;61;1008;-88
2024/03/24 19:05:14;58062.00;0.19;101.13;0.00;0.00;0.62;;;;;7.70;1.00;;;;;;2280467;61;1391;-87
2024/03/24 19:07:40;45027.00;0.15;78.58;0.00;0.00;0.62;;;;;7.60;1.00;;;;;;2280553;61;1155;-87
2024/03/24 19:10:13;184881.00;0.62;319.89;0.00;0.00;0.62;;;;;7.80;1.00;;;;;;2280525;61;946;-87
2024/03/24 19:12:39;144164.00;0.48;249.75;36162.00;0.12;63.25;;;;;7.80;1.00;;;;;;2280473;61;1997;-87
2024/03/24 19:15:11;87314.00;0.29;151.67;0.00;0.00;0.62;;;;;7.90;1.00;;;;;;2280565;61;945;-86
2024/03/24 19:17:37;0.00;0.00;0.62;0.00;0.00;0.62;;;;;7.80;1.00;;;;;;2280513;61;1278;-86
2024/03/24 19:20:05;86831.00;0.29;150.84;0.00;0.00;0.62;;;;;7.80;1.00;;;;;;2280582;61;1303;-86
2024/03/24 19:22:33;29204.00;0.10;51.21;0.00;0.00;0.62;;;;;8.10;1.00;;;;;;2280560;61;2276;-87
2024/03/24 19:24:59;90664.00;0.30;157.45;0.00;0.00;0.62;;;;;7.90;1.00;;;;;;2280531;61;999;-86
2024/03/24 19:27:26;205078.00;0.68;354.66;0.00;0.00;0.62;;;;;8.00;1.00;;;;;;2280360;61;1351;-88
2024/03/24 19:29:53;116182760.00;387.28;63524564.00;0.00;0.00;0.62;;;;;8.00;1.00;;;;;;2280469;61;1315;-86
2024/03/24 19:32:24;20347.00;0.07;35.87;0.00;0.00;0.62;;;;;7.90;1.00;;;;;;2280467;61;1925;-87
2024/03/24 19:34:50;14449.00;0.05;25.66;0.00;0.00;0.62;;;;;8.00;1.00;;;;;;2280506;61;1150;-85
2024/03/24 19:37:23;86827.00;0.29;150.83;0.00;0.00;0.62;;;;;8.00;1.00;;;;;;2280555;61;1382;-86
2024/03/24 19:39:50;38072.00;0.13;66.55;0.00;0.00;0.62;;;;;7.80;1.00;;;;;;2280414;61;1254;-86
2024/03/24 19:42:17;5601.00;0.02;10.33;0.00;0.00;0.62;;;;;7.80;1.00;;;;;;2280461;61;1072;-88
2024/03/24 19:44:44;0.00;0.00;0.62;0.00;0.00;0.62;;;;;7.60;1.00;;;;;;2280467;61;1121;-87
2024/03/24 19:47:11;142804.00;0.48;247.40;0.00;0.00;0.62;;;;;7.80;1.00;;;;;;2280469;61;1401;-87
2024/03/24 19:49:38;105880.00;0.35;183.72;0.00;0.00;0.62;;;;;8.20;1.00;;;;;;2280440;61;1149;-89
2024/03/24 19:52:05;33173.00;0.11;58.07;0.00;0.00;0.62;;;;;8.30;1.00;;;;;;2280308;61;1919;-88
2024/03/24 19:54:32;82876.00;0.28;144.00;0.00;0.00;0.62;;;;;8.40;1.00;;;;;;2280185;61;1018;-89
2024/03/24 19:57:00;176698.00;0.59;305.80;0.00;0.00;0.62;;;;;8.50;1.00;;;;;;2280127;61;2255;-86
2024/03/24 19:59:26;23291.00;0.08;40.97;0.00;0.00;0.62;;;;;8.60;1.00;;;;;;2280028;61;1154;-87
2024/03/24 20:01:53;65882.00;0.22;114.64;0.00;0.00;0.62;;;;;8.30;1.00;;;;;;2280396;61;1729;-86
2024/03/24 20:04:21;0.00;0.00;0.62;0.00;0.00;0.62;;;;;8.30;1.00;;;;;;2280442;61;1148;-87
2024/03/24 20:06:49;0.00;0.00;0.62;0.00;0.00;0.62;;;;;8.30;1.00;;;;;;2280308;61;1407;-88
2024/03/24 20:19:25;312670.00;1.04;539.70;63978.00;0.21;111.35;;;;;6.60;1.00;;;;;;2282599;39;3510;-85
2024/03/24 20:36:54;448269.00;1.49;772.81;0.00;0.00;0.62;;;;;6.50;1.00;;;;;;1982776;56;3660;-86
2024/03/24 20:44:23;188255.00;0.63;325.70;0.00;0.00;0.62;;;;;6.50;1.00;;;;;;1392033;40;3582;-88
2024/03/24 20:59:22;128582.00;0.43;222.88;0.00;0.00;0.62;;;;;7.10;1.00;;;;;;2273680;61;1396;-88
2024/03/24 21:04:25;176149.00;0.59;304.86;0.00;0.00;0.62;;;;;6.80;1.00;;;;;;2277965;61;1335;-88
2024/03/24 21:14:26;1523380.00;5.08;2687.19;0.00;0.00;0.62;;;;;7.00;1.00;;;;;;2257969;61;1190544;-88
2024/03/24 21:19:23;101564.00;0.34;176.27;0.00;0.00;0.62;;;;;7.30;1.00;;;;;;2278326;61;1419;-88
2024/03/24 22:04:47;1739263.00;5.80;3101.97;58542.00;0.20;101.96;;;;;8.20;1.00;;;;;;2274686;61;1289;-90
2024/03/24 22:17:16;368401.00;1.23;635.49;0.00;0.00;0.62;;;;;8.90;1.00;;;;;;2297869;56;3564;-89
2024/03/24 22:37:20;643817.00;2.15;1109.94;99727.00;0.33;173.10;;;;;8.50;1.00;;;;;;2278938;61;1385;-90
2024/03/24 22:54:50;340894.00;1.14;588.21;0.00;0.00;0.62;;;;;8.50;1.00;;;;;;2369888;40;3617;-91